Flight Track Log - Related Links

Times and Time Zones

All times are in EDT time to prevent confusion due to time zone crossing. See the N703RM flight status page for this flight to view local times or setup timezone preferences in your user account.

Time Position Orientation Groundspeed Altitude Reporting Facility
EDT Latitude Longitude Course Direction KTS MPH feet Rate Location/Type
Sun 10:24:39 AM 38.7500 -77.5333 270° West 160 184 1,100  Level Potomac TRACON
Sun 10:25:33 AM 38.7500 -77.5833 270° West 188 216 2,000 842 Climbing Potomac TRACON
Sun 10:26:33 AM 38.7500 -77.6667 270° West 204 235 2,700 1,046 Climbing Potomac TRACON
Sun 10:27:22 AM 38.7319 -77.7181 246° West 184 212 3,900 1,200 Climbing Washington Center
Sun 10:28:23 AM 38.7017 -77.7756 236° Southwest 208 239 4,900 984 Climbing Washington Center
Sun 10:29:24 AM 38.6633 -77.8331 230° Southwest 213 245 5,900 1,240 Climbing Washington Center
Sun 10:30:24 AM 38.6289 -77.8853 230° Southwest 213 245 7,400 1,322 Climbing Washington Center
Sun 10:31:22 AM 38.5986 -77.9400 235° Southwest 208 239 8,500 1,068 Climbing Washington Center
Sun 10:32:22 AM 38.5664 -77.9947 233° Southwest 203 234 9,500 992 Climbing Washington Center
Sun 10:33:23 AM 38.5317 -78.0519 232° Southwest 203 234 10,500 984 Climbing Washington Center
Sun 10:34:24 AM 38.4994 -78.1067 233° Southwest 203 234 11,500 1,008 Climbing Washington Center
Sun 10:35:22 AM 38.4647 -78.1639 232° Southwest 203 234 12,500 1,017 Climbing Washington Center
Sun 10:36:22 AM 38.4344 -78.2183 235° Southwest 203 234 13,500 1,033 Climbing Washington Center
Sun 10:37:24 AM 38.4019 -78.2728 233° Southwest 203 234 14,600 984 Climbing Washington Center
Sun 10:38:24 AM 38.3694 -78.3272 233° Southwest 203 234 15,500 712 Climbing Washington Center
Sun 10:39:22 AM 38.3247 -78.3706 217° Southwest 203 234 16,000 252 Climbing Washington Center
Sun 10:40:23 AM 38.2656 -78.3950 198° South 208 239 16,000  Level Washington Center
Sun 10:41:24 AM 38.2003 -78.4217 198° South 234 269 16,000  Level Washington Center
Sun 10:42:22 AM 38.1372 -78.4456 197° South 246 283 16,000  Level Washington Center
Sun 10:43:23 AM 38.0719 -78.4722 198° South 246 283 16,000  Level Washington Center
Sun 10:44:24 AM 38.0153 -78.4936 197° South 246 283 16,000  Level Washington Center
Sun 10:45:22 AM 37.9539 -78.5231 201° Southwest 246 283 16,000  Level Washington Center
Sun 10:46:23 AM 37.8844 -78.5492 197° South 246 283 16,000  Level Washington Center
Sun 10:47:24 AM 37.8192 -78.5728 196° South 246 283 16,000  Level Washington Center
Sun 10:48:25 AM 37.7539 -78.5992 198° South 246 283 16,000 51 Level Washington Center
Sun 10:49:22 AM 37.6886 -78.6228 196° South 246 283 16,100  Climbing Washington Center
Sun 10:50:23 AM 37.6233 -78.6492 198° South 246 283 16,000 -50 Descending Washington Center
Sun 10:51:23 AM 37.5644 -78.6728 198° South 246 283 16,000  Level Washington Center
Sun 10:52:24 AM 37.4992 -78.6964 196° South 246 283 16,000  Level Washington Center
Sun 10:53:37 AM 37.4378 -78.7228 199° South 246 283 16,000  Level Washington Center
Sun 10:54:34 AM 37.3578 -78.7533 197° South 246 283 16,000  Level Washington Center
Sun 10:56:36 AM 37.2228 -78.8053 197° South 246 283 16,000  Level Washington Center
Sun 10:57:34 AM 37.1575 -78.8286 196° South 246 283 16,000  Level Washington Center
Sun 10:58:35 AM 37.0922 -78.8544 198° South 246 283 16,000  Level Washington Center
Sun 10:59:36 AM 37.0289 -78.8803 198° South 246 283 16,000  Level Washington Center
Sun 11:00:37 AM 36.9658 -78.9036 196° South 245 282 16,000  Level Washington Center
Sun 11:01:34 AM 36.9067 -78.9244 196° South 245 282 16,000  Level Washington Center
Sun 11:02:34 AM 36.8414 -78.9503 198° South 245 282 16,000 -100 Level Washington Center
Sun 11:03:34 AM 36.7781 -78.9761 198° South 245 282 15,800 -600 Descending Washington Center
Sun 11:04:34 AM 36.7011 -78.9650 173° South 256 295 14,800 -1,190 Descending Washington Center
Sun 11:05:35 AM 36.6222 -78.9511 172° South 271 312 13,400 -1,644 Descending Washington Center
Sun 11:05:47 AM 36.5975 -78.9447 168° South 293 337 12,800 -2,333 Descending Washington Center
Sun 11:05:53 AM 36.5911 -78.9447 180° South 292 336 12,700 -1,102 Descending Washington Center
Sun 11:06:36 AM 36.5433 -78.9375 173° South 292 336 11,900 -1,377 Descending Washington Center
Sun 11:06:54 AM 36.5103 -78.9281 167° South 288 331 11,300 -1,400 Descending Washington Center
Sun 11:07:36 AM 36.4625 -78.9133 166° South 292 336 10,500 -1,500 Descending Washington Center
Sun 11:07:54 AM 36.4253 -78.9064 171° South 288 331 9,800 -1,448 Descending Washington Center
Sun 11:08:34 AM 36.3858 -78.8997 172° South 292 336 9,100 -1,279 Descending Washington Center
Sun 11:08:55 AM 36.3486 -78.8903 168° South 282 325 8,500 -1,100 Descending Washington Center
Sun 11:09:34 AM 36.3092 -78.8836 172° South 292 336 8,000 -500 Descending Washington Center
Sun 11:09:55 AM 36.2739 -78.8744 168° South 274 315 8,000  Level Washington Center
Sun 11:10:35 AM 36.2364 -78.8675 172° South 286 329 8,000  Level Washington Center
Sun 11:10:56 AM 36.2053 -78.8586 167° South 252 290 8,000  Level Washington Center
Sun 11:11:36 AM 36.1700 -78.8544 175° South 267 307 8,000  Level Washington Center
Sun 11:11:57 AM 36.1347 -78.8481 172° South 239 275 8,000  Level Washington Center
Sun 11:12:36 AM 36.1036 -78.8389 167° South 254 292 8,000  Level Washington Center
Sun 11:13:06 AM 36.0622 -78.8319 172° South 239 275 8,000  Level Washington Center
Sun 11:13:34 AM 36.0372 -78.8258 169° South 249 287 8,000  Level Washington Center
Sun 11:14:07 AM 35.9936 -78.8189 173° South 243 280 8,000  Level Washington Center
Sun 11:14:34 AM 35.9725 -78.8258 195° South 244 281 8,000 -444 Level Washington Center
Sun 11:15:01 AM 35.9469 -78.8531 221° Southwest 218 251 7,600  Descending Washington Center
Sun 11:15:35 AM 35.9275 -78.8728 219° Southwest 217 250 8,000 -1,967 Climbing Washington Center
Sun 11:16:02 AM 35.9036 -78.9025 225° Southwest 208 239 5,600 -3,310 Descending Washington Center
Sun 11:17:02 AM 35.8667 -78.9575 230° Southwest 210 242 3,200 -1,289 Descending Washington Center
Sun 11:18:03 AM 35.8253 -79.0247 233° Southwest 226 260 3,000 -298 Descending Washington Center
Sun 11:19:03 AM 35.7858 -79.0128 166° South 170 196 2,600 -496 Descending Washington Center
Sun 11:20:04 AM 35.7642 -78.9658 120° Southeast 159 183 2,000 -295 Descending Washington Center
Sun 11:21:05 AM 35.7783 -78.9128 72° East 162 186 2,000  Level Washington Center
Sun 11:22:06 AM 35.8044 -78.8728 51° Northeast 148 170 2,000 -295 Level Washington Center
Sun 11:23:07 AM 35.8325 -78.8356 47° Northeast 140 161 1,400 -694 Descending Washington Center
Sun 11:24:07 AM 35.8583 -78.8083 40° Northeast 119 137 600 -800 Descending Washington Center

Login

Don't have an account? Register now (free) for customized features, flight alerts, and more!